EHEH/EIN METAR and TAF weather

Enter ICAO airport designator
Station Type Date Time Source
EHEH METAR 2020/07/14 21:55 UTC NOAA

EHEH 142155Z AUTO 33006KT 230V020 9999 OVC061 15/12 Q1014 BLU


Station Type Date Time Source
EHEH Decoded METAR 2020/07/14 21:55 UTC NOAA

Eindhoven, Netherlands (EHEH) 51-27N 005-25E 28M
Jul 14, 2020 - 05:55 PM EDT / 2020.07.14 2155 UTC
Wind: from the NNW (330 degrees) at 7 MPH (6 KT) (direction variable):0
Visibility: greater than 7 mile(s):0
Sky conditions: overcast
Temperature: 59 F (15 C)
Dew Point: 53 F (12 C)
Relative Humidity: 82%
Pressure (altimeter): 29.94 in. Hg (1014 hPa)
ob: EHEH 142155Z AUTO 33006KT 230V020 9999 OVC061 15/12 Q1014 BLU
cycle: 22

Station Type Date Time Source
EHEH TAF 2020/07/14 18:37 UTC NOAA

TAF EHEH 141723Z 1418/1524 30007KT 9999 SCT020 OVC050
TEMPO 1418/1419 -RADZ BKN010 BKN015 OVC025 PROB30
TEMPO 1418/1419 3500 DZ SCT005 BKN007 OVC014
BECMG 1418/1420 31006KT NSW SCT015 BKN030
BECMG 1420/1423 30005KT CAVOK PROB40 1503/1506 VRB02KT 4000 BR
BECMG 1507/1510 28005KT SCT025

Example: see airport list